Time;durP1;ratioP1;P1;durP2;ratioP2;P2;SDS_P1;SDS_P2;PMS_P1;PMS_P2;Temp;Humidity;BMP_temperature;BMP_pressure;BME280_temperature;BME280_humidity;BME280_pressure;Samples;Min_cycle;Max_cycle;Signal;HPM_P1;HPM_P2
2022/01/24 00:00:13;;;;;;;49.10;24.88;;;5.60;90.50;;;;;;6220821;22;20026;-62
2022/01/24 00:02:40;;;;;;;67.50;24.60;;;5.60;90.50;;;;;;6242697;22;20000;-60
2022/01/24 00:05:06;;;;;;;50.03;23.80;;;5.60;90.50;;;;;;6244018;22;20004;-61
2022/01/24 00:07:32;;;;;;;54.47;24.33;;;5.60;90.50;;;;;;6241983;22;20018;-62
2022/01/24 00:10:01;;;;;;;56.08;23.48;;;5.60;90.50;;;;;;6271029;22;20004;-63
2022/01/24 00:12:39;;;;;;;51.03;23.02;;;5.50;90.50;;;;;;6221547;22;20031;-61
2022/01/24 00:17:34;;;;;;;53.30;24.05;;;5.50;90.50;;;;;;6271470;22;20053;-62
2022/01/24 00:28:12;;;;;;;52.08;21.88;;;5.50;90.50;;;;;;6248326;22;20010;-60
2022/01/24 00:30:37;;;;;;;56.50;22.13;;;5.40;90.50;;;;;;6244202;22;20003;-63
2022/01/24 00:33:03;;;;;;;43.38;23.95;;;5.40;90.60;;;;;;6269250;22;20004;-61
2022/01/24 00:35:28;;;;;;;54.60;25.30;;;5.40;90.60;;;;;;6270443;22;20053;-62
2022/01/24 00:37:59;;;;;;;51.47;25.65;;;5.40;90.60;;;;;;6243728;22;20054;-62
2022/01/24 00:40:26;;;;;;;40.35;21.80;;;5.40;90.60;;;;;;6221502;22;19999;-60
2022/01/24 00:42:56;;;;;;;44.83;23.55;;;5.40;90.60;;;;;;6219772;22;20049;-62
2022/01/24 00:45:37;;;;;;;48.17;23.05;;;5.40;90.70;;;;;;6243574;22;20006;-62
2022/01/24 00:55:42;;;;;;;43.55;22.42;;;5.30;90.80;;;;;;6220260;22;20023;-62
2022/01/24 00:58:08;;;;;;;51.30;25.33;;;5.40;90.80;;;;;;6267725;22;20004;-62
2022/01/24 01:00:33;;;;;;;49.88;25.05;;;5.40;90.70;;;;;;6269697;22;20038;-59
2022/01/24 01:02:59;;;;;;;40.08;23.13;;;5.40;90.70;;;;;;6269290;22;20422;-62
2022/01/24 01:18:34;;;;;;;39.60;22.55;;;5.30;90.80;;;;;;6272237;22;20161;-62
2022/01/24 01:21:11;;;;;;;42.67;21.70;;;5.30;90.80;;;;;;6244152;22;20004;-61
2022/01/24 01:23:40;;;;;;;38.47;20.50;;;5.30;90.80;;;;;;6267919;22;20003;-62
2022/01/24 01:26:11;;;;;;;45.85;21.63;;;5.30;90.80;;;;;;6268975;22;20008;-61
2022/01/24 01:28:40;;;;;;;37.60;20.73;;;5.30;90.80;;;;;;6268906;22;20010;-61
2022/01/24 01:31:12;;;;;;;44.85;22.35;;;5.40;90.80;;;;;;6246635;22;20389;-61
2022/01/24 01:33:56;;;;;;;42.90;20.48;;;5.30;90.80;;;;;;6246434;22;20360;-61
2022/01/24 01:52:51;;;;;;;33.60;19.30;;;5.40;90.70;;;;;;6270261;22;20014;-60
2022/01/24 01:58:01;;;;;;;32.85;18.95;;;5.40;90.70;;;;;;6271992;22;20479;-61
2022/01/24 02:00:26;;;;;;;41.75;18.65;;;5.40;90.80;;;;;;6245561;22;19999;-62
2022/01/24 02:02:51;;;;;;;28.85;16.67;;;5.40;90.80;;;;;;6243640;22;20007;-62
2022/01/24 02:05:17;;;;;;;34.20;18.52;;;5.40;91.10;;;;;;6216125;22;20012;-61
2022/01/24 02:07:47;;;;;;;33.42;19.10;;;5.40;90.80;;;;;;6241902;22;20012;-60
2022/01/24 02:10:13;;;;;;;35.92;18.52;;;5.40;90.80;;;;;;6270615;22;20173;-60
2022/01/24 02:12:38;;;;;;;36.38;18.30;;;5.40;90.80;;;;;;6271075;22;20035;-62
2022/01/24 02:15:04;;;;;;;34.35;18.15;;;5.40;90.90;;;;;;6242637;22;20011;-62
2022/01/24 02:17:44;;;;;;;39.35;17.77;;;5.40;90.80;;;;;;6268709;22;20000;-62
2022/01/24 02:20:37;;;;;;;28.92;17.20;;;5.40;90.80;;;;;;6224228;22;20030;-60
2022/01/24 02:23:18;;;;;;;;;;;5.40;90.80;;;;;;6271212;22;20023;-61
2022/01/24 02:25:44;;;;;;;33.78;18.63;;;5.40;90.80;;;;;;6271598;22;19907;-63
2022/01/24 02:28:11;;;;;;;33.13;20.98;;;5.40;90.80;;;;;;6271387;22;20071;-60
2022/01/24 02:33:09;;;;;;;29.63;19.13;;;5.40;90.80;;;;;;6244413;22;20011;-61
2022/01/24 02:35:35;;;;;;;33.65;19.80;;;5.40;90.90;;;;;;6243627;22;20003;-60
2022/01/24 02:38:05;;;;;;;34.55;19.33;;;5.40;90.80;;;;;;6218701;22;20106;-62
2022/01/24 02:40:30;;;;;;;27.55;18.02;;;5.40;90.80;;;;;;6270534;22;20069;-60
2022/01/24 02:48:25;;;;;;;27.25;17.83;;;5.40;90.80;;;;;;6270599;22;20340;-61
2022/01/24 02:53:40;;;;;;;29.90;19.10;;;5.40;90.80;;;;;;6227591;22;20087;-62
2022/01/24 02:56:06;;;;;;;27.38;18.38;;;5.40;90.80;;;;;;6245819;22;20476;-62
2022/01/24 02:58:32;;;;;;;31.75;18.50;;;5.40;90.80;;;;;;6216278;22;20105;-62
2022/01/24 03:00:57;;;;;;;28.45;17.05;;;5.40;90.80;;;;;;6268418;22;20023;-60
2022/01/24 03:03:23;;;;;;;29.35;17.05;;;5.40;90.80;;;;;;6268118;22;20004;-60
2022/01/24 03:05:49;;;;;;;33.90;18.75;;;5.40;90.80;;;;;;6268542;22;20027;-62
2022/01/24 03:08:14;;;;;;;27.02;17.40;;;5.40;90.80;;;;;;6266995;22;20003;-60
2022/01/24 03:10:44;;;;;;;26.02;17.48;;;5.40;90.80;;;;;;6266489;22;20035;-62
2022/01/24 03:15:38;;;;;;;29.42;16.67;;;5.40;90.80;;;;;;6270122;22;20007;-62
2022/01/24 03:18:05;;;;;;;36.58;23.13;;;5.40;90.80;;;;;;6268997;22;20417;-62
2022/01/24 03:20:30;;;;;;;33.88;22.75;;;5.40;90.80;;;;;;6269985;22;20334;-62
2022/01/24 03:22:56;;;;;;;31.75;21.75;;;5.40;90.80;;;;;;6265817;22;20000;-60
2022/01/24 03:25:21;;;;;;;28.90;19.38;;;5.40;90.80;;;;;;6267265;22;20477;-60
2022/01/24 03:27:47;;;;;;;32.80;18.75;;;5.40;90.70;;;;;;6267719;22;20421;-61
2022/01/24 03:30:12;;;;;;;34.33;20.10;;;5.40;90.70;;;;;;6268614;22;20011;-62
2022/01/24 03:32:38;;;;;;;28.60;19.02;;;5.40;90.70;;;;;;6267857;22;20000;-61
2022/01/24 03:35:07;;;;;;;29.15;18.20;;;5.40;90.70;;;;;;6240753;22;19999;-61
2022/01/24 03:37:33;;;;;;;28.55;18.65;;;5.40;90.70;;;;;;6266186;22;20298;-61
2022/01/24 03:39:59;;;;;;;27.63;17.00;;;5.40;90.70;;;;;;6267738;22;20003;-60
2022/01/24 03:42:24;;;;;;;25.83;17.85;;;5.40;90.70;;;;;;6268097;22;20309;-62
2022/01/24 03:44:56;;;;;;;27.77;18.35;;;5.40;90.70;;;;;;6269455;22;19996;-60
2022/01/24 03:50:06;;;;;;;27.73;18.42;;;5.40;90.70;;;;;;6268668;22;20010;-61
2022/01/24 03:52:32;;;;;;;29.45;17.23;;;5.40;90.70;;;;;;6268993;22;20167;-60
2022/01/24 03:54:58;;;;;;;25.58;17.13;;;5.40;90.70;;;;;;6269291;22;20386;-61
2022/01/24 03:57:24;;;;;;;29.45;17.55;;;5.40;90.70;;;;;;6268869;22;20037;-61
2022/01/24 03:59:50;;;;;;;30.80;17.15;;;5.40;90.70;;;;;;6217393;22;20103;-60
2022/01/24 04:02:16;;;;;;;29.27;16.92;;;5.40;90.70;;;;;;6265739;22;20019;-62
2022/01/24 04:04:41;;;;;;;28.95;17.58;;;5.40;90.70;;;;;;6266160;22;20345;-60
2022/01/24 04:07:07;;;;;;;24.38;17.33;;;5.50;90.70;;;;;;6270330;22;20000;-61
2022/01/24 04:09:34;;;;;;;26.88;17.05;;;5.40;90.70;;;;;;6219102;22;20322;-61
2022/01/24 04:12:00;;;;;;;27.23;15.95;;;5.40;90.70;;;;;;6245472;22;20000;-59
2022/01/24 04:14:40;;;;;;;32.92;17.00;;;5.40;90.60;;;;;;6268538;22;19995;-61
2022/01/24 04:17:22;;;;;;;24.88;16.55;;;5.40;90.70;;;;;;6244909;22;20015;-62
2022/01/24 04:22:45;;;;;;;25.15;17.52;;;5.40;90.70;;;;;;6223501;22;20042;-62
2022/01/24 04:25:14;;;;;;;26.42;17.88;;;5.50;90.70;;;;;;6271851;22;20027;-61
2022/01/24 04:27:40;;;;;;;22.13;15.90;;;5.40;90.70;;;;;;6269362;22;20011;-62
2022/01/24 04:30:06;;;;;;;20.58;16.75;;;5.40;90.70;;;;;;6268979;22;20328;-62
2022/01/24 04:32:32;;;;;;;28.63;16.98;;;5.40;90.70;;;;;;6269394;22;20000;-62
2022/01/24 04:34:57;;;;;;;22.85;15.77;;;5.40;90.70;;;;;;6245179;22;20042;-60
2022/01/24 04:37:23;;;;;;;27.98;16.60;;;5.50;90.70;;;;;;6271533;22;20050;-62
2022/01/24 04:39:48;;;;;;;23.17;15.55;;;5.50;90.70;;;;;;6271087;22;20452;-62
2022/01/24 04:42:23;;;;;;;24.33;16.45;;;5.40;90.70;;;;;;6269126;22;20168;-60
2022/01/24 04:47:32;;;;;;;18.88;14.88;;;5.50;90.70;;;;;;6268648;22;20087;-62
2022/01/24 04:52:52;;;;;;;29.70;16.50;;;5.50;90.60;;;;;;6268777;22;20081;-61
2022/01/24 04:55:18;;;;;;;28.38;16.70;;;5.50;90.60;;;;;;6269569;22;20008;-61
2022/01/24 04:57:46;;;;;;;27.88;17.13;;;5.50;90.70;;;;;;6243412;22;20446;-60
2022/01/24 05:00:12;;;;;;;26.00;18.85;;;5.50;90.70;;;;;;6271882;22;20078;-61
2022/01/24 05:02:37;;;;;;;25.85;19.23;;;5.50;90.70;;;;;;6243985;22;20003;-62
2022/01/24 05:05:04;;;;;;;26.75;17.17;;;5.50;90.70;;;;;;6271133;22;20263;-61
2022/01/24 05:07:29;;;;;;;57.13;20.70;;;5.50;90.70;;;;;;6241489;22;20173;-62
2022/01/24 05:10:36;;;;;;;61.88;19.88;;;5.50;90.70;;;;;;6269811;22;20629;-61
2022/01/24 05:26:00;;;;;;;35.65;16.63;;;5.50;90.70;;;;;;6245933;22;20086;-60
2022/01/24 05:28:25;;;;;;;37.42;17.77;;;5.50;90.70;;;;;;6244014;22;20484;-60
2022/01/24 05:30:51;;;;;;;36.03;17.50;;;5.50;90.70;;;;;;6271120;22;20088;-61
2022/01/24 05:33:17;;;;;;;32.70;17.90;;;5.50;90.70;;;;;;6241077;22;20503;-62
2022/01/24 05:35:42;;;;;;;33.72;16.73;;;5.50;91.00;;;;;;6242234;22;20004;-60
2022/01/24 05:38:10;;;;;;;34.47;18.02;;;5.50;90.70;;;;;;6242497;22;20007;-62
2022/01/24 05:40:35;;;;;;;29.20;15.50;;;5.50;90.70;;;;;;6242845;22;20054;-61
2022/01/24 05:43:01;;;;;;;36.47;17.98;;;5.50;90.80;;;;;;6243006;22;20004;-60
2022/01/24 05:45:26;;;;;;;31.60;16.48;;;5.50;90.70;;;;;;6268183;22;20023;-62
2022/01/24 05:47:52;;;;;;;33.38;16.38;;;5.50;90.70;;;;;;6267440;22;20011;-60
2022/01/24 05:50:17;;;;;;;34.03;17.40;;;5.50;90.70;;;;;;6269743;22;20004;-60
2022/01/24 05:52:43;;;;;;;27.08;17.45;;;5.50;90.70;;;;;;6269473;22;20414;-60
2022/01/24 05:55:09;;;;;;;39.65;17.98;;;5.50;90.70;;;;;;6271040;22;20503;-63
2022/01/24 05:57:36;;;;;;;38.47;16.95;;;5.50;90.80;;;;;;6267025;22;20026;-60
2022/01/24 06:00:02;;;;;;;31.42;17.35;;;5.50;90.80;;;;;;6268837;22;20058;-62
2022/01/24 06:02:28;;;;;;;27.75;15.73;;;5.50;90.80;;;;;;6268887;22;20000;-62
2022/01/24 06:04:53;;;;;;;28.15;16.95;;;5.50;90.80;;;;;;6269798;22;20177;-59
2022/01/24 06:07:19;;;;;;;25.13;16.08;;;5.50;90.80;;;;;;6268950;22;20020;-63
2022/01/24 06:09:44;;;;;;;24.80;16.02;;;5.50;90.90;;;;;;6269728;22;20337;-62
2022/01/24 06:12:10;;;;;;;30.65;15.88;;;5.50;91.00;;;;;;6265539;22;20000;-61
2022/01/24 06:14:36;;;;;;;30.20;14.55;;;5.50;91.00;;;;;;6266607;22;20034;-60
2022/01/24 06:17:01;;;;;;;30.10;17.63;;;5.50;90.90;;;;;;6268725;22;20031;-60
2022/01/24 06:19:27;;;;;;;29.73;16.42;;;5.50;91.00;;;;;;6243305;22;20072;-60
2022/01/24 06:21:52;;;;;;;33.65;16.05;;;5.50;90.90;;;;;;6264235;22;20035;-60
2022/01/24 06:24:18;;;;;;;34.80;17.40;;;5.50;90.90;;;;;;6268616;22;20360;-60
2022/01/24 06:26:43;;;;;;;29.10;16.45;;;5.50;91.20;;;;;;6266204;22;20018;-60
2022/01/24 06:29:11;;;;;;;25.38;15.18;;;5.50;90.90;;;;;;6267331;22;20418;-60
2022/01/24 06:31:36;;;;;;;28.65;16.17;;;5.50;90.90;;;;;;6268807;22;20003;-61
2022/01/24 06:34:02;;;;;;;27.83;16.15;;;5.50;90.90;;;;;;6270816;22;20057;-62
2022/01/24 06:36:27;;;;;;;31.00;16.10;;;5.50;90.90;;;;;;6267107;22;20082;-61
2022/01/24 06:38:53;;;;;;;29.88;16.38;;;5.50;91.00;;;;;;6266195;22;20031;-61
2022/01/24 06:41:23;;;;;;;30.83;16.17;;;5.50;90.90;;;;;;6266064;22;20321;-61
2022/01/24 06:43:49;;;;;;;22.42;15.63;;;5.50;90.90;;;;;;6266403;22;20004;-60
2022/01/24 06:46:14;;;;;;;27.20;16.08;;;5.50;90.90;;;;;;6268000;22;20034;-61
2022/01/24 06:48:40;;;;;;;31.02;16.77;;;5.50;91.00;;;;;;6241950;22;20008;-61
2022/01/24 06:51:10;;;;;;;33.53;16.58;;;5.50;90.90;;;;;;6268416;22;20397;-60
2022/01/24 06:53:36;;;;;;;26.20;16.52;;;5.50;90.90;;;;;;6266402;22;20010;-60
2022/01/24 06:56:02;;;;;;;27.08;16.27;;;5.50;90.90;;;;;;6267018;22;20091;-60
2022/01/24 06:58:28;;;;;;;30.73;16.10;;;5.50;90.90;;;;;;6270574;22;20052;-62
2022/01/24 07:00:54;;;;;;;21.58;15.00;;;5.50;90.90;;;;;;6267114;22;19999;-62
2022/01/24 07:03:19;;;;;;;26.08;15.77;;;5.50;90.90;;;;;;6263890;22;20010;-61
2022/01/24 07:05:45;;;;;;;23.00;14.95;;;5.50;90.90;;;;;;6262559;22;20015;-62
2022/01/24 07:08:10;;;;;;;28.17;14.35;;;5.50;90.90;;;;;;6263518;22;20402;-61
2022/01/24 07:10:36;;;;;;;21.73;15.05;;;5.50;90.90;;;;;;6268295;22;20011;-62
2022/01/24 07:13:01;;;;;;;30.75;15.52;;;5.50;90.90;;;;;;6269071;22;20003;-62
2022/01/24 07:15:37;;;;;;;22.80;15.40;;;5.50;90.90;;;;;;6265847;22;20003;-61
2022/01/24 07:20:35;;;;;;;22.48;14.32;;;5.50;90.80;;;;;;6241417;22;20015;-61
2022/01/24 07:23:02;;;;;;;25.20;16.48;;;5.50;90.80;;;;;;6264184;22;20212;-62
2022/01/24 07:25:27;;;;;;;22.08;15.05;;;5.50;90.80;;;;;;6258723;22;19996;-60
2022/01/24 07:27:53;;;;;;;28.73;15.65;;;5.50;90.80;;;;;;6265123;22;20011;-60
2022/01/24 07:30:18;;;;;;;28.85;16.30;;;5.50;90.80;;;;;;6266391;22;20071;-61
2022/01/24 07:32:44;;;;;;;21.55;15.60;;;5.50;90.80;;;;;;6263043;22;20391;-62
2022/01/24 07:35:09;;;;;;;24.05;15.13;;;5.50;90.80;;;;;;6266679;22;20449;-61
2022/01/24 07:37:35;;;;;;;22.48;15.70;;;5.50;90.70;;;;;;6268142;22;20004;-59
2022/01/24 07:40:02;;;;;;;23.15;14.90;;;5.50;90.70;;;;;;6267769;22;20429;-62
2022/01/24 07:42:39;;;;;;;20.00;15.25;;;5.50;90.70;;;;;;6266369;22;20014;-62
2022/01/24 07:45:05;;;;;;;24.83;15.27;;;5.50;90.70;;;;;;6267672;22;20333;-60
2022/01/24 07:47:31;;;;;;;21.80;15.13;;;5.50;90.70;;;;;;6240098;22;20384;-60
2022/01/24 07:49:56;;;;;;;25.00;15.18;;;5.50;90.70;;;;;;6267060;22;20032;-62
2022/01/24 07:52:22;;;;;;;24.73;15.55;;;5.50;90.70;;;;;;6264726;22;20488;-60
2022/01/24 07:54:47;;;;;;;21.20;15.88;;;5.50;90.70;;;;;;6265681;22;20078;-60
2022/01/24 07:57:13;;;;;;;19.98;15.90;;;5.50;90.70;;;;;;6265558;22;20047;-62
2022/01/24 07:59:38;;;;;;;21.45;15.07;;;5.50;90.70;;;;;;6266165;22;20007;-60
2022/01/24 08:02:04;;;;;;;28.92;16.60;;;5.50;90.70;;;;;;6241078;22;20011;-62
2022/01/24 08:04:29;;;;;;;22.92;16.50;;;5.50;90.80;;;;;;6268350;22;20000;-62
2022/01/24 08:06:55;;;;;;;44.17;17.40;;;5.50;90.70;;;;;;6270368;22;20278;-61
2022/01/24 08:09:20;;;;;;;34.05;17.88;;;5.50;91.00;;;;;;6268600;22;19999;-60
2022/01/24 08:11:46;;;;;;;38.58;18.27;;;5.50;90.70;;;;;;6263037;22;20073;-62
2022/01/24 08:14:12;;;;;;;42.28;18.15;;;5.50;90.80;;;;;;6263971;22;20030;-59
2022/01/24 08:16:39;;;;;;;37.85;17.73;;;5.60;90.80;;;;;;6268100;22;20166;-63
2022/01/24 08:19:04;;;;;;;36.25;18.83;;;5.60;90.80;;;;;;6265939;22;20075;-61
2022/01/24 08:21:30;;;;;;;35.67;17.27;;;5.60;90.80;;;;;;6267384;22;20050;-59
2022/01/24 08:23:56;;;;;;;41.97;17.70;;;5.60;90.80;;;;;;6265673;22;20110;-60
2022/01/24 08:26:21;;;;;;;34.83;17.65;;;5.60;90.80;;;;;;6264577;22;20008;-60
2022/01/24 08:28:47;;;;;;;38.58;17.80;;;5.60;90.80;;;;;;6241090;22;20008;-63
2022/01/24 08:31:12;;;;;;;30.67;17.83;;;5.60;90.80;;;;;;6269656;22;20007;-61
2022/01/24 08:33:38;;;;;;;37.00;17.73;;;5.60;90.80;;;;;;6239229;22;20003;-61
2022/01/24 08:36:04;;;;;;;29.67;17.20;;;5.60;90.80;;;;;;6267304;22;20008;-62
2022/01/24 08:38:33;;;;;;;36.30;18.63;;;5.60;90.80;;;;;;6266352;22;20003;-62
2022/01/24 08:41:05;;;;;;;48.40;18.35;;;5.60;90.70;;;;;;6267757;22;20004;-62
2022/01/24 08:43:49;;;;;;;39.95;18.02;;;5.60;90.70;;;;;;6269048;22;20003;-63
2022/01/24 08:46:15;;;;;;;45.45;19.05;;;5.60;90.70;;;;;;6269137;22;20007;-59
2022/01/24 08:48:42;;;;;;;28.45;16.63;;;5.60;90.70;;;;;;6265452;22;20000;-62
2022/01/24 08:51:08;;;;;;;28.35;17.00;;;5.60;90.70;;;;;;6240578;22;20439;-60
2022/01/24 08:53:34;;;;;;;35.75;17.52;;;5.60;90.70;;;;;;6268245;22;19999;-62
2022/01/24 08:56:01;;;;;;;36.13;17.10;;;5.60;90.70;;;;;;6267105;22;20098;-63
2022/01/24 08:58:27;;;;;;;38.88;18.15;;;5.60;90.70;;;;;;6242823;22;20008;-61
2022/01/24 09:00:52;;;;;;;33.35;17.70;;;5.60;90.70;;;;;;6265950;22;20014;-62
2022/01/24 09:03:18;;;;;;;46.17;18.77;;;5.60;90.70;;;;;;6264236;22;20038;-61
2022/01/24 09:05:45;;;;;;;57.92;18.30;;;5.60;90.70;;;;;;6267792;22;20007;-62
2022/01/24 09:08:11;;;;;;;43.30;18.45;;;5.60;90.70;;;;;;6244215;22;20003;-61
2022/01/24 09:10:38;;;;;;;38.78;18.13;;;5.70;90.70;;;;;;6268490;22;20007;-61
2022/01/24 09:13:04;;;;;;;42.13;18.65;;;5.60;90.70;;;;;;6266356;22;20049;-61
2022/01/24 09:15:30;;;;;;;43.22;19.17;;;5.60;90.70;;;;;;6264772;22;20012;-62
2022/01/24 09:17:55;;;;;;;46.75;19.52;;;5.70;90.70;;;;;;6268090;22;20057;-63
2022/01/24 09:20:21;;;;;;;37.13;17.77;;;5.70;90.70;;;;;;6265895;22;20082;-62
2022/01/24 09:22:48;;;;;;;43.25;17.50;;;5.70;90.60;;;;;;6241491;22;20095;-61
2022/01/24 09:25:15;;;;;;;40.65;18.27;;;5.70;90.60;;;;;;6268046;22;20471;-63
2022/01/24 09:27:41;;;;;;;56.28;20.00;;;5.70;90.60;;;;;;6266026;22;20000;-60
2022/01/24 09:30:07;;;;;;;37.78;18.15;;;5.70;90.60;;;;;;6237673;22;20157;-62
2022/01/24 09:32:33;;;;;;;62.20;18.30;;;5.80;90.60;;;;;;6263901;22;20007;-60
2022/01/24 09:34:58;;;;;;;43.20;19.63;;;5.70;90.60;;;;;;6265688;22;20033;-63
2022/01/24 09:37:24;;;;;;;44.05;19.52;;;5.80;90.70;;;;;;6266193;22;20093;-62
2022/01/24 09:39:50;;;;;;;50.92;20.10;;;5.80;90.70;;;;;;6241518;22;20085;-61
2022/01/24 09:42:16;;;;;;;55.65;20.38;;;5.70;90.60;;;;;;6264215;22;20515;-63
2022/01/24 09:44:42;;;;;;;51.22;20.60;;;5.80;90.70;;;;;;6263525;22;20177;-59
2022/01/24 09:47:07;;;;;;;62.95;20.40;;;5.80;90.70;;;;;;6265028;22;20409;-61
2022/01/24 09:49:33;;;;;;;67.93;20.73;;;5.80;90.60;;;;;;6239849;22;20426;-61
2022/01/24 09:51:58;;;;;;;75.63;21.83;;;5.80;90.70;;;;;;6266369;22;20008;-61
2022/01/24 09:54:24;;;;;;;57.20;22.50;;;5.80;90.70;;;;;;6263232;22;20015;-62
2022/01/24 09:56:50;;;;;;;74.95;20.98;;;5.80;90.70;;;;;;6264138;22;20074;-60
2022/01/24 09:59:15;;;;;;;59.75;20.98;;;5.90;90.70;;;;;;6260168;22;20003;-61
2022/01/24 10:01:42;;;;;;;63.35;19.95;;;5.90;90.70;;;;;;6264371;22;20095;-62
2022/01/24 10:04:18;;;;;;;57.28;21.33;;;5.90;90.60;;;;;;6265456;22;20004;-61
2022/01/24 10:07:02;;;;;;;59.63;22.00;;;5.90;90.60;;;;;;6263507;22;20004;-60
2022/01/24 10:09:44;;;;;;;57.38;22.00;;;5.90;90.60;;;;;;6267925;22;20417;-62
2022/01/24 10:12:24;;;;;;;67.13;21.95;;;5.90;90.60;;;;;;6266901;22;20053;-61
2022/01/24 10:17:36;;;;;;;71.30;22.40;;;5.90;90.60;;;;;;6246585;22;20070;-59
2022/01/24 10:20:17;;;;;;;72.30;22.38;;;6.00;90.60;;;;;;6238887;22;20014;-62
2022/01/24 10:22:42;;;;;;;68.70;22.27;;;6.00;90.60;;;;;;6265509;22;20061;-60
2022/01/24 10:25:11;;;;;;;67.80;22.50;;;6.00;90.70;;;;;;6266183;22;20173;-63
2022/01/24 10:27:36;;;;;;;68.15;21.80;;;6.00;90.70;;;;;;6267232;22;20007;-62
2022/01/24 10:30:08;;;;;;;145.15;27.92;;;6.00;90.80;;;;;;6242370;22;20397;-62
2022/01/24 10:32:49;;;;;;;152.05;29.45;;;6.00;90.70;;;;;;6241285;22;20007;-61
2022/01/24 10:35:46;;;;;;;129.38;28.50;;;6.00;90.80;;;;;;6266161;22;20007;-60
2022/01/24 10:38:40;;;;;;;114.28;29.27;;;6.10;90.90;;;;;;6248340;22;20460;-60
2022/01/24 10:41:20;;;;;;;115.43;27.58;;;6.10;90.80;;;;;;6269312;22;20026;-63
2022/01/24 10:43:46;;;;;;;95.60;25.98;;;6.10;90.80;;;;;;6268889;22;20460;-62
2022/01/24 10:46:12;;;;;;;99.20;25.25;;;6.10;90.80;;;;;;6262112;22;20011;-61
2022/01/24 10:48:42;;;;;;;98.82;27.30;;;6.10;90.80;;;;;;6213770;22;20088;-61
2022/01/24 10:51:20;;;;;;;129.75;27.52;;;6.10;90.80;;;;;;6264030;22;20067;-62
2022/01/24 10:53:47;;;;;;;101.55;27.20;;;6.10;90.70;;;;;;6266110;22;20011;-60
2022/01/24 10:56:29;;;;;;;107.05;26.02;;;6.10;90.70;;;;;;6264679;22;20012;-62
2022/01/24 10:59:11;;;;;;;108.38;26.15;;;6.10;90.70;;;;;;6240060;22;20012;-62
2022/01/24 11:01:37;;;;;;;106.93;27.38;;;6.20;91.10;;;;;;6238413;22;20008;-60
2022/01/24 11:04:07;;;;;;;111.47;27.35;;;6.20;90.90;;;;;;6238347;22;20420;-59
2022/01/24 11:06:45;;;;;;;87.10;24.98;;;6.20;91.20;;;;;;6214412;22;20018;-60
2022/01/24 11:09:14;;;;;;;85.30;24.92;;;6.20;90.80;;;;;;6217145;22;20010;-59
2022/01/24 11:11:40;;;;;;;85.70;24.80;;;6.20;90.80;;;;;;6267223;22;20034;-60
2022/01/24 11:14:09;;;;;;;85.32;25.05;;;6.20;90.80;;;;;;6236955;22;20012;-61
2022/01/24 11:16:37;;;;;;;83.40;25.60;;;6.20;90.70;;;;;;6263735;22;20048;-63
2022/01/24 11:19:04;;;;;;;97.22;26.17;;;6.20;90.80;;;;;;6239976;22;20004;-62
2022/01/24 11:21:33;;;;;;;88.63;28.83;;;6.20;90.70;;;;;;6242893;22;20123;-61
2022/01/24 11:24:03;;;;;;;93.97;26.75;;;6.20;90.70;;;;;;6265111;22;20126;-60
2022/01/24 11:26:29;;;;;;;76.90;25.92;;;6.20;90.80;;;;;;6240159;22;20031;-62
2022/01/24 11:28:54;;;;;;;92.70;26.92;;;6.20;90.80;;;;;;6261107;22;20015;-60
2022/01/24 11:31:23;;;;;;;103.32;27.15;;;6.20;90.80;;;;;;6239887;22;19999;-61
2022/01/24 11:34:08;;;;;;;84.05;25.77;;;6.20;90.70;;;;;;6216543;22;20025;-61
2022/01/24 11:36:39;;;;;;;104.60;27.47;;;6.30;90.70;;;;;;6243367;22;20022;-63
2022/01/24 11:39:05;;;;;;;90.68;26.10;;;6.30;90.70;;;;;;6265292;22;20007;-61
2022/01/24 11:41:35;;;;;;;91.22;25.85;;;6.30;90.60;;;;;;6241023;22;20100;-60
2022/01/24 11:44:13;;;;;;;69.78;23.25;;;6.30;90.60;;;;;;6240492;22;20008;-61
2022/01/24 11:46:50;;;;;;;76.03;25.02;;;6.30;90.50;;;;;;6218784;22;20008;-61
2022/01/24 11:49:38;;;;;;;66.90;25.15;;;6.30;90.50;;;;;;6267763;22;20100;-60
2022/01/24 11:52:13;;;;;;;77.95;27.17;;;6.30;90.50;;;;;;6240366;22;20443;-61
2022/01/24 11:54:49;;;;;;;83.25;27.08;;;6.30;90.50;;;;;;6265729;22;20000;-60
2022/01/24 11:57:37;;;;;;;80.93;25.60;;;6.30;90.40;;;;;;6266028;22;20487;-62
2022/01/24 12:00:06;;;;;;;71.22;23.52;;;6.30;90.40;;;;;;6264853;22;20015;-61
2022/01/24 12:02:40;;;;;;;103.32;24.60;;;6.30;90.50;;;;;;6266965;22;20018;-62
2022/01/24 12:05:14;;;;;;;83.10;27.27;;;6.30;90.50;;;;;;6263434;22;20007;-63
2022/01/24 12:07:50;;;;;;;75.78;24.42;;;6.30;90.50;;;;;;6265666;22;20243;-60
2022/01/24 12:10:34;;;;;;;76.38;24.60;;;6.40;90.40;;;;;;6268629;22;20039;-60
2022/01/24 12:13:03;;;;;;;95.47;25.23;;;6.40;90.30;;;;;;6267189;22;20503;-63
2022/01/24 12:15:40;;;;;;;87.72;26.63;;;6.40;90.30;;;;;;6267220;22;20014;-63
2022/01/24 12:18:13;;;;;;;58.97;23.70;;;6.40;90.30;;;;;;6264484;22;20047;-62
2022/01/24 12:20:40;;;;;;;81.13;24.48;;;6.40;90.20;;;;;;6263304;22;20008;-59
2022/01/24 12:23:24;;;;;;;69.20;22.60;;;6.40;90.20;;;;;;6265468;22;20007;-63
2022/01/24 12:25:57;;;;;;;64.57;23.92;;;6.50;90.10;;;;;;6267209;22;20003;-62
2022/01/24 12:28:41;;;;;;;82.97;25.25;;;6.40;90.10;;;;;;6267043;22;20000;-60
2022/01/24 12:31:07;;;;;;;62.08;22.92;;;6.50;90.10;;;;;;6261663;22;20030;-60
2022/01/24 12:33:40;;;;;;;61.50;22.40;;;6.50;90.40;;;;;;6266325;22;20015;-61
2022/01/24 12:36:10;;;;;;;58.00;22.20;;;6.50;90.00;;;;;;6265426;22;20412;-62
2022/01/24 12:38:39;;;;;;;62.38;23.33;;;6.50;90.00;;;;;;6266322;22;20012;-61
2022/01/24 12:41:38;;;;;;;67.88;23.30;;;6.50;90.00;;;;;;6268886;22;20012;-61
2022/01/24 12:46:30;;;;;;;57.67;21.77;;;6.50;90.00;;;;;;6265878;22;20008;-62
2022/01/24 12:48:56;;;;;;;61.83;23.20;;;6.50;90.00;;;;;;6217925;22;20012;-62
2022/01/24 12:51:22;;;;;;;88.68;25.50;;;6.50;89.90;;;;;;6245007;22;20414;-60
2022/01/24 12:53:49;;;;;;;97.05;25.45;;;6.60;90.00;;;;;;6244749;22;20045;-61
2022/01/24 12:56:16;;;;;;;76.45;24.52;;;6.60;90.00;;;;;;6267073;22;20022;-62
2022/01/24 12:58:43;;;;;;;72.18;24.20;;;6.60;90.00;;;;;;6218688;22;20035;-62
2022/01/24 13:01:31;;;;;;;49.70;21.27;;;6.60;89.90;;;;;;6242892;22;20003;-60
2022/01/24 13:04:02;;;;;;;69.07;22.95;;;6.60;89.80;;;;;;6270232;22;20023;-62
2022/01/24 13:06:32;;;;;;;54.47;21.10;;;6.60;89.70;;;;;;6270064;22;20003;-60
2022/01/24 13:09:00;;;;;;;70.10;22.90;;;6.60;89.60;;;;;;6265357;22;20012;-60
2022/01/24 13:11:28;;;;;;;57.08;20.55;;;6.70;89.60;;;;;;6266483;22;20089;-60
2022/01/24 13:14:20;;;;;;;67.85;21.70;;;6.70;89.60;;;;;;6263304;22;20378;-60
2022/01/24 13:22:23;;;;;;;52.70;20.45;;;6.70;89.60;;;;;;6267546;22;20022;-62
2022/01/24 13:25:15;;;;;;;66.97;22.23;;;6.70;89.40;;;;;;6267096;22;20402;-60
2022/01/24 13:27:45;;;;;;;98.47;23.67;;;6.80;89.30;;;;;;6268363;22;20000;-59
2022/01/24 13:30:27;;;;;;;71.95;23.98;;;6.80;89.30;;;;;;6267626;22;20047;-60
2022/01/24 13:32:54;;;;;;;63.50;21.33;;;6.80;89.40;;;;;;6268291;22;20524;-61
2022/01/24 13:35:31;;;;;;;80.10;21.95;;;6.80;89.30;;;;;;6268578;22;19999;-62
2022/01/24 13:38:04;;;;;;;67.63;21.35;;;6.80;89.30;;;;;;6268393;22;20010;-63
2022/01/24 13:40:34;;;;;;;75.72;23.55;;;6.80;89.30;;;;;;6216106;22;20008;-61
2022/01/24 13:43:00;;;;;;;64.18;22.08;;;6.80;89.30;;;;;;6268469;22;20000;-60
2022/01/24 13:45:25;;;;;;;79.07;22.15;;;6.80;89.20;;;;;;6267204;22;20049;-61
2022/01/24 13:47:58;;;;;;;82.25;22.83;;;6.90;89.30;;;;;;6263001;22;20008;-63
2022/01/24 13:50:24;;;;;;;65.55;21.45;;;6.90;89.50;;;;;;6212395;22;20007;-61
2022/01/24 13:52:50;;;;;;;58.67;20.23;;;6.90;89.40;;;;;;6267142;22;20186;-62
2022/01/24 13:55:16;;;;;;;76.90;22.52;;;6.90;89.20;;;;;;6263641;22;20004;-59
2022/01/24 13:57:46;;;;;;;71.82;22.80;;;6.90;89.30;;;;;;6236562;22;20007;-63
2022/01/24 14:00:15;;;;;;;67.65;21.95;;;7.00;89.40;;;;;;6241287;22;20079;-59
2022/01/24 14:02:40;;;;;;;81.13;23.13;;;6.90;89.20;;;;;;6215997;22;20582;-61
2022/01/24 14:05:06;;;;;;;73.35;21.08;;;7.00;89.20;;;;;;6239534;22;20042;-61
2022/01/24 14:07:33;;;;;;;61.72;21.00;;;7.00;89.20;;;;;;6241062;22;20015;-60
2022/01/24 14:10:07;;;;;;;68.32;21.90;;;7.00;89.10;;;;;;6266964;22;20014;-60
2022/01/24 14:12:44;;;;;;;89.07;22.45;;;7.00;89.10;;;;;;6242217;22;19996;-61
2022/01/24 14:17:52;;;;;;;94.72;22.02;;;7.00;89.00;;;;;;6241442;22;20397;-61
2022/01/24 14:20:19;;;;;;;65.65;21.48;;;7.00;89.00;;;;;;6219298;22;20008;-60
2022/01/24 14:22:45;;;;;;;79.55;21.40;;;7.10;88.90;;;;;;6242081;22;20058;-61
2022/01/24 14:25:16;;;;;;;72.40;21.15;;;7.00;88.80;;;;;;6269865;22;20003;-61
2022/01/24 14:27:41;;;;;;;70.53;22.20;;;7.10;89.00;;;;;;6240527;22;20034;-63